createdAt,value
2017-03-22T00:00:12.410Z,7.80
2017-03-22T00:01:17.213Z,7.70
2017-03-22T00:02:22.877Z,7.70
2017-03-22T00:03:29.294Z,7.70
2017-03-22T00:04:34.157Z,7.60
2017-03-22T00:05:39.978Z,7.70
2017-03-22T00:06:45.489Z,7.60
2017-03-22T00:07:51.812Z,7.80
2017-03-22T00:08:56.757Z,7.80
2017-03-22T00:10:03.212Z,7.90
2017-03-22T00:11:08.832Z,7.80
2017-03-22T00:12:13.677Z,7.80
2017-03-22T00:13:19.910Z,7.80
2017-03-22T00:14:24.698Z,7.60
2017-03-22T00:15:31.114Z,7.50
2017-03-22T00:16:35.881Z,7.50
2017-03-22T00:17:42.126Z,7.60
2017-03-22T00:18:47.781Z,7.60
2017-03-22T00:19:53.529Z,7.50
2017-03-22T00:20:59.216Z,7.60
2017-03-22T00:22:04.707Z,7.60
2017-03-22T00:23:10.318Z,7.60
2017-03-22T00:24:16.013Z,7.60
2017-03-22T00:25:22.469Z,7.60
2017-03-22T00:26:27.322Z,7.60
2017-03-22T00:27:33.827Z,7.50
2017-03-22T00:28:38.591Z,7.50
2017-03-22T00:29:46.148Z,7.50
2017-03-22T00:30:52.272Z,7.50
2017-03-22T00:31:58.350Z,7.50
2017-03-22T00:33:03.128Z,7.50
2017-03-22T00:34:08.801Z,7.60
2017-03-22T00:35:15.326Z,7.70
2017-03-22T00:36:20.173Z,7.60
2017-03-22T00:37:26.629Z,7.60
2017-03-22T00:38:31.357Z,7.60
2017-03-22T00:39:36.842Z,7.50
2017-03-22T00:40:42.633Z,7.60
2017-03-22T00:41:47.483Z,7.60
2017-03-22T00:42:52.206Z,7.60
2017-03-22T00:43:57.790Z,7.60
2017-03-22T00:45:02.603Z,7.50
2017-03-22T00:46:08.983Z,7.60
2017-03-22T00:47:13.859Z,7.50
2017-03-22T00:48:20.369Z,7.60
2017-03-22T00:49:25.292Z,7.50
2017-03-22T00:50:31.651Z,7.50
2017-03-22T00:51:36.595Z,7.50
2017-03-22T00:52:42.231Z,7.50
2017-03-22T00:53:46.958Z,7.50
2017-03-22T00:54:52.554Z,7.50
2017-03-22T00:55:58.914Z,7.50
2017-03-22T00:57:03.861Z,7.50
2017-03-22T00:58:09.546Z,7.50
2017-03-22T00:59:15.889Z,7.30
2017-03-22T01:00:21.545Z,7.30
2017-03-22T01:01:26.325Z,7.30
2017-03-22T01:02:32.077Z,7.30
2017-03-22T01:03:37.633Z,7.30
2017-03-22T01:04:43.908Z,7.30
2017-03-22T01:05:48.902Z,7.30
2017-03-22T01:06:56.028Z,7.30
2017-03-22T01:08:00.938Z,7.30
2017-03-22T01:09:07.209Z,7.30
2017-03-22T01:10:12.230Z,7.30
2017-03-22T01:11:18.728Z,7.30
2017-03-22T01:12:24.219Z,7.40
2017-03-22T01:13:29.979Z,7.40
2017-03-22T01:14:34.820Z,7.40
2017-03-22T01:15:40.483Z,7.50
2017-03-22T01:16:46.023Z,7.40
2017-03-22T01:17:51.634Z,7.40
2017-03-22T01:18:58.051Z,7.40
2017-03-22T01:20:04.526Z,7.50
2017-03-22T01:21:10.038Z,7.50
2017-03-22T01:22:14.876Z,7.50
2017-03-22T01:23:21.300Z,7.50
2017-03-22T01:24:27.014Z,7.50
2017-03-22T01:25:33.516Z,7.50
2017-03-22T01:26:38.236Z,7.50
2017-03-22T01:27:43.729Z,7.50
2017-03-22T01:28:49.209Z,7.40
2017-03-22T01:29:54.897Z,7.50
2017-03-22T01:31:01.281Z,7.50
2017-03-22T01:32:06.901Z,7.50
2017-03-22T01:33:12.503Z,7.50
2017-03-22T01:34:18.944Z,7.60
2017-03-22T01:35:24.500Z,7.60
2017-03-22T01:36:30.186Z,7.60
2017-03-22T01:37:35.926Z,7.60
2017-03-22T01:38:42.077Z,7.60
2017-03-22T01:39:46.915Z,7.60
2017-03-22T01:40:53.251Z,7.60
2017-03-22T01:41:58.870Z,7.60
2017-03-22T01:43:04.442Z,7.60
2017-03-22T01:44:09.175Z,7.60
2017-03-22T01:45:14.933Z,7.50
2017-03-22T01:46:21.185Z,7.50
2017-03-22T01:47:26.086Z,7.50
2017-03-22T01:48:32.355Z,7.40
2017-03-22T01:49:37.107Z,7.40
2017-03-22T01:50:43.517Z,7.40
2017-03-22T01:51:49.150Z,7.40
2017-03-22T01:52:54.779Z,7.50
2017-03-22T01:53:59.589Z,7.40
2017-03-22T01:55:05.873Z,7.50
2017-03-22T01:56:11.296Z,7.60
2017-03-22T01:57:16.153Z,7.50
2017-03-22T01:58:21.694Z,7.50
2017-03-22T01:59:28.049Z,7.60
2017-03-22T02:00:33.005Z,7.60
2017-03-22T02:01:38.496Z,7.60
2017-03-22T02:02:45.081Z,7.50
2017-03-22T02:03:49.848Z,7.50
2017-03-22T02:04:55.272Z,7.50
2017-03-22T02:06:01.745Z,7.60
2017-03-22T02:07:07.411Z,7.50
2017-03-22T02:08:13.187Z,7.50
2017-03-22T02:09:18.645Z,7.50
2017-03-22T02:10:24.228Z,7.40
2017-03-22T02:11:29.841Z,7.40
2017-03-22T02:12:34.768Z,7.40
2017-03-22T02:13:42.194Z,7.40
2017-03-22T02:14:47.030Z,7.30
2017-03-22T02:15:53.398Z,7.40
2017-03-22T02:16:59.865Z,7.40
2017-03-22T02:18:04.859Z,7.40
2017-03-22T02:19:10.209Z,7.40
2017-03-22T02:20:15.929Z,7.50
2017-03-22T02:21:21.453Z,7.50
2017-03-22T02:22:27.011Z,7.40
2017-03-22T02:23:32.660Z,7.40
2017-03-22T02:24:37.612Z,7.40
2017-03-22T02:25:43.947Z,7.50
2017-03-22T02:26:48.770Z,7.40
2017-03-22T02:27:53.514Z,7.50
2017-03-22T02:28:59.263Z,7.50
2017-03-22T02:30:05.606Z,7.50
2017-03-22T02:31:10.365Z,7.50
2017-03-22T02:32:16.755Z,7.50
2017-03-22T02:33:21.669Z,7.50
2017-03-22T02:34:27.394Z,7.60
2017-03-22T02:35:32.891Z,7.50
2017-03-22T02:36:38.457Z,7.50
2017-03-22T02:37:44.889Z,7.50
2017-03-22T02:38:50.626Z,7.40
2017-03-22T02:39:55.304Z,7.40
2017-03-22T02:41:01.838Z,7.40
2017-03-22T02:42:07.444Z,7.50
2017-03-22T02:43:12.970Z,7.50
2017-03-22T02:44:18.442Z,7.50
2017-03-22T02:45:24.193Z,7.40
2017-03-22T02:46:28.870Z,7.30
2017-03-22T02:47:35.292Z,7.40
2017-03-22T02:48:40.038Z,7.40
2017-03-22T02:49:46.333Z,7.50
2017-03-22T02:50:51.130Z,7.50
2017-03-22T02:51:55.966Z,7.60
2017-03-22T02:53:02.298Z,7.70
2017-03-22T02:54:07.969Z,7.70
2017-03-22T02:55:13.509Z,7.70
2017-03-22T02:56:18.453Z,7.60
2017-03-22T02:57:24.898Z,7.70
2017-03-22T02:58:30.641Z,7.60
2017-03-22T02:59:36.410Z,7.60
2017-03-22T03:00:42.068Z,7.50
2017-03-22T03:01:47.672Z,7.50
2017-03-22T03:02:55.258Z,7.50
2017-03-22T03:04:00.201Z,7.50
2017-03-22T03:05:05.684Z,7.40
2017-03-22T03:06:10.391Z,7.40
2017-03-22T03:07:16.786Z,7.30
2017-03-22T03:08:21.666Z,7.30
2017-03-22T03:09:27.233Z,7.30
2017-03-22T03:10:33.541Z,7.30
2017-03-22T03:11:39.281Z,7.30
2017-03-22T03:12:44.142Z,7.30
2017-03-22T03:13:50.521Z,7.30
2017-03-22T03:14:56.166Z,7.30
2017-03-22T03:16:01.089Z,7.20
2017-03-22T03:17:07.386Z,7.20
2017-03-22T03:18:13.831Z,7.20
2017-03-22T03:19:19.757Z,7.10
2017-03-22T03:20:24.521Z,7.10
2017-03-22T03:21:30.039Z,7.10
2017-03-22T03:22:36.462Z,7.10
2017-03-22T03:23:41.362Z,7.00
2017-03-22T03:24:48.597Z,7.10
2017-03-22T03:25:54.469Z,7.20
2017-03-22T03:27:00.131Z,7.20
2017-03-22T03:28:05.814Z,7.30
2017-03-22T03:29:10.737Z,7.20
2017-03-22T03:30:16.456Z,7.30
2017-03-22T03:31:21.954Z,7.20
2017-03-22T03:32:26.656Z,7.20
2017-03-22T03:33:33.098Z,7.20
2017-03-22T03:34:37.724Z,7.20
2017-03-22T03:35:44.134Z,7.10
2017-03-22T03:36:48.993Z,7.10
2017-03-22T03:37:55.446Z,7.10
2017-03-22T03:39:00.774Z,7.10
2017-03-22T03:40:05.698Z,7.10
2017-03-22T03:41:12.145Z,7.10
2017-03-22T03:42:16.971Z,7.10
2017-03-22T03:43:22.538Z,7.10
2017-03-22T03:44:28.849Z,7.10
2017-03-22T03:45:34.725Z,7.10
2017-03-22T03:46:41.021Z,7.10
2017-03-22T03:47:45.900Z,7.10
2017-03-22T03:48:52.154Z,7.10
2017-03-22T03:49:57.673Z,7.30
2017-03-22T03:51:03.210Z,7.30
2017-03-22T03:52:08.417Z,7.20
2017-03-22T03:53:13.902Z,7.30
2017-03-22T03:54:20.310Z,7.20
2017-03-22T03:55:25.273Z,7.10
2017-03-22T03:56:31.553Z,7.00
2017-03-22T03:57:36.509Z,7.00
2017-03-22T03:58:42.086Z,7.00
2017-03-22T03:59:47.605Z,7.00
2017-03-22T04:00:52.307Z,7.00
2017-03-22T04:01:58.881Z,6.90
2017-03-22T04:03:03.820Z,6.90
2017-03-22T04:04:09.407Z,6.90
2017-03-22T04:05:14.145Z,6.90
2017-03-22T04:06:20.604Z,6.90
2017-03-22T04:07:25.457Z,6.90
2017-03-22T04:08:31.939Z,7.10
2017-03-22T04:09:37.471Z,7.10
2017-03-22T04:10:43.080Z,7.20
2017-03-22T04:11:48.757Z,7.00
2017-03-22T04:12:53.412Z,7.00
2017-03-22T04:13:59.906Z,6.90
2017-03-22T04:15:04.725Z,6.70
2017-03-22T04:16:11.141Z,6.60
2017-03-22T04:17:16.838Z,6.60
2017-03-22T04:18:21.629Z,6.60
2017-03-22T04:19:28.168Z,6.80
2017-03-22T04:20:33.024Z,6.80
2017-03-22T04:21:39.355Z,6.90
2017-03-22T04:22:44.356Z,6.80
2017-03-22T04:23:50.050Z,7.10
2017-03-22T04:24:55.661Z,7.20
2017-03-22T04:26:01.169Z,7.10
2017-03-22T04:27:06.200Z,7.00
2017-03-22T04:28:12.388Z,6.80
2017-03-22T04:29:17.218Z,6.80
2017-03-22T04:30:23.026Z,6.80
2017-03-22T04:31:29.281Z,6.80
2017-03-22T04:32:34.093Z,6.80
2017-03-22T04:33:40.534Z,6.80
2017-03-22T04:34:46.026Z,6.70
2017-03-22T04:35:50.881Z,6.70
2017-03-22T04:36:57.188Z,6.60
2017-03-22T04:38:02.142Z,6.60
2017-03-22T04:39:07.459Z,6.80
2017-03-22T04:40:13.037Z,6.70
2017-03-22T04:41:19.374Z,6.70
2017-03-22T04:42:25.054Z,6.80
2017-03-22T04:43:29.896Z,6.70
2017-03-22T04:44:34.677Z,6.80
2017-03-22T04:45:40.105Z,6.80
2017-03-22T04:46:45.688Z,6.80
2017-03-22T04:47:51.422Z,6.80
2017-03-22T04:48:56.316Z,6.70
2017-03-22T04:50:01.843Z,6.60
2017-03-22T04:51:06.516Z,6.60
2017-03-22T04:52:12.091Z,6.70
2017-03-22T04:53:16.713Z,6.60
2017-03-22T04:54:23.125Z,6.50
2017-03-22T04:55:28.537Z,6.60
2017-03-22T04:56:33.544Z,6.50
2017-03-22T04:57:40.026Z,6.70
2017-03-22T04:58:45.549Z,6.60
2017-03-22T04:59:50.193Z,6.60
2017-03-22T05:00:56.545Z,6.70
2017-03-22T05:02:02.134Z,6.90
2017-03-22T05:03:06.847Z,6.90
2017-03-22T05:04:12.531Z,7.00
2017-03-22T05:05:18.882Z,6.90
2017-03-22T05:06:24.425Z,6.90
2017-03-22T05:07:29.236Z,6.90
2017-03-22T05:08:35.781Z,6.80
2017-03-22T05:09:41.324Z,6.90
2017-03-22T05:10:47.009Z,6.90
2017-03-22T05:11:51.828Z,6.90
2017-03-22T05:12:58.262Z,7.20
2017-03-22T05:14:04.780Z,7.10
2017-03-22T05:15:10.334Z,6.80
2017-03-22T05:16:15.211Z,6.80
2017-03-22T05:17:20.706Z,6.70
2017-03-22T05:18:25.470Z,6.70
2017-03-22T05:19:31.100Z,6.70
2017-03-22T05:20:36.720Z,6.60
2017-03-22T05:21:42.213Z,6.70
2017-03-22T05:22:48.591Z,6.80
2017-03-22T05:23:53.441Z,6.70
2017-03-22T05:24:59.864Z,7.00
2017-03-22T05:26:04.800Z,6.90
2017-03-22T05:27:11.189Z,7.00
2017-03-22T05:28:16.905Z,7.00
2017-03-22T05:29:22.686Z,7.00
2017-03-22T05:30:27.438Z,7.00
2017-03-22T05:31:33.095Z,7.10
2017-03-22T05:32:39.557Z,7.00
2017-03-22T05:33:44.354Z,6.90
2017-03-22T05:34:50.718Z,7.00
2017-03-22T05:35:56.439Z,6.90
2017-03-22T05:37:01.194Z,6.80
2017-03-22T05:38:05.977Z,6.90
2017-03-22T05:39:12.341Z,7.20
2017-03-22T05:40:17.300Z,7.20
2017-03-22T05:41:24.705Z,6.90
2017-03-22T05:42:30.302Z,7.00
2017-03-22T05:43:35.142Z,6.90
2017-03-22T05:44:40.577Z,7.00
2017-03-22T05:45:45.987Z,7.10
2017-03-22T05:46:51.697Z,6.90
2017-03-22T05:47:57.297Z,6.90
2017-03-22T05:49:05.666Z,7.00
2017-03-22T05:50:10.704Z,7.20
2017-03-22T05:51:16.992Z,7.20
2017-03-22T05:52:22.778Z,7.20
2017-03-22T05:53:27.738Z,7.10
2017-03-22T05:54:33.181Z,7.20
2017-03-22T05:55:38.710Z,7.20
2017-03-22T05:56:44.267Z,7.20
2017-03-22T05:57:49.022Z,7.10
2017-03-22T05:58:55.297Z,7.40
2017-03-22T06:00:00.892Z,7.50
2017-03-22T06:01:05.936Z,7.50
2017-03-22T06:02:12.319Z,7.60
2017-03-22T06:03:17.102Z,7.50
2017-03-22T06:04:22.700Z,7.50
2017-03-22T06:05:28.390Z,7.50
2017-03-22T06:06:33.916Z,7.20
2017-03-22T06:07:38.780Z,7.20
2017-03-22T06:08:45.437Z,7.20
2017-03-22T06:09:51.093Z,7.20
2017-03-22T06:10:57.565Z,7.00
2017-03-22T06:12:02.521Z,6.90
2017-03-22T06:13:07.250Z,6.90
2017-03-22T06:14:13.770Z,7.00
2017-03-22T06:15:19.362Z,7.00
2017-03-22T06:16:24.146Z,7.00
2017-03-22T06:17:30.493Z,7.10
2017-03-22T06:18:35.359Z,7.10
2017-03-22T06:19:41.061Z,7.10
2017-03-22T06:20:46.613Z,7.10
2017-03-22T06:21:52.220Z,7.10
2017-03-22T06:22:58.593Z,7.10
2017-03-22T06:24:04.446Z,7.10
2017-03-22T06:25:09.165Z,7.10
2017-03-22T06:26:14.800Z,7.10
2017-03-22T06:27:20.412Z,7.10
2017-03-22T06:28:26.024Z,7.20
2017-03-22T06:29:32.293Z,7.10
2017-03-22T06:30:37.954Z,7.20
2017-03-22T06:31:42.694Z,7.10
2017-03-22T06:32:49.061Z,7.40
2017-03-22T06:33:54.703Z,7.50
2017-03-22T06:34:59.699Z,7.40
2017-03-22T06:36:06.009Z,7.50
2017-03-22T06:37:10.701Z,7.40
2017-03-22T06:38:17.090Z,7.50
2017-03-22T06:39:21.979Z,7.50
2017-03-22T06:40:27.657Z,7.50
2017-03-22T06:41:35.077Z,7.50
2017-03-22T06:42:39.913Z,7.40
2017-03-22T06:43:45.454Z,7.40
2017-03-22T06:44:51.821Z,7.60
2017-03-22T06:45:56.738Z,7.50
2017-03-22T06:47:02.587Z,7.60
2017-03-22T06:48:07.764Z,7.40
2017-03-22T06:49:13.921Z,7.40
2017-03-22T06:50:19.577Z,7.40
2017-03-22T06:51:24.513Z,7.40
2017-03-22T06:52:30.253Z,7.50
2017-03-22T06:53:35.618Z,7.40
2017-03-22T06:54:41.129Z,7.50
2017-03-22T06:55:45.969Z,7.40
2017-03-22T06:56:52.462Z,7.50
2017-03-22T06:57:58.909Z,7.60
2017-03-22T06:59:03.654Z,7.60
2017-03-22T07:00:09.942Z,7.60
2017-03-22T07:01:14.704Z,7.60
2017-03-22T07:02:20.351Z,7.60
2017-03-22T07:03:26.774Z,7.60
2017-03-22T07:04:32.303Z,7.70
2017-03-22T07:05:37.198Z,7.60
2017-03-22T07:06:43.637Z,7.70
2017-03-22T07:07:49.234Z,7.80
2017-03-22T07:08:54.785Z,7.90
2017-03-22T07:10:00.215Z,7.90
2017-03-22T07:11:05.799Z,7.90
2017-03-22T07:12:12.317Z,7.90
2017-03-22T07:13:17.901Z,8.00
2017-03-22T07:14:23.681Z,7.90
2017-03-22T07:15:29.426Z,7.80
2017-03-22T07:16:35.056Z,7.70
2017-03-22T07:17:39.839Z,7.80
2017-03-22T07:18:46.229Z,7.80
2017-03-22T07:19:51.879Z,7.90
2017-03-22T07:20:57.273Z,7.90
2017-03-22T07:22:02.105Z,7.90
2017-03-22T07:23:07.934Z,7.90
2017-03-22T07:24:13.378Z,7.90
2017-03-22T07:25:19.791Z,7.90
2017-03-22T07:26:24.678Z,7.90
2017-03-22T07:27:31.109Z,8.00
2017-03-22T07:28:36.031Z,8.00
2017-03-22T07:29:41.536Z,8.10
2017-03-22T07:30:47.014Z,8.20
2017-03-22T07:31:51.822Z,8.20
2017-03-22T07:33:01.033Z,8.30
2017-03-22T07:34:07.011Z,8.20
2017-03-22T07:35:13.433Z,8.10
2017-03-22T07:36:18.369Z,8.10
2017-03-22T07:37:24.097Z,8.30
2017-03-22T07:38:30.527Z,8.40
2017-03-22T07:39:37.905Z,8.40
2017-03-22T07:40:42.920Z,8.30
2017-03-22T07:41:48.470Z,8.30
2017-03-22T07:42:53.257Z,8.30
2017-03-22T07:43:58.825Z,8.10
2017-03-22T07:45:04.530Z,8.40
2017-03-22T07:46:10.217Z,8.40
2017-03-22T07:47:15.689Z,8.50
2017-03-22T07:48:21.132Z,8.60
2017-03-22T07:49:26.077Z,8.50
2017-03-22T07:50:32.508Z,8.50
2017-03-22T07:51:37.233Z,8.50
2017-03-22T07:52:43.649Z,8.70
2017-03-22T07:53:48.469Z,8.60
2017-03-22T07:54:54.019Z,8.70
2017-03-22T07:55:59.523Z,8.70
2017-03-22T07:57:05.160Z,8.70
2017-03-22T07:58:10.177Z,8.60
2017-03-22T07:59:15.721Z,8.60
2017-03-22T08:00:21.285Z,8.50
2017-03-22T08:01:26.782Z,8.40
2017-03-22T08:02:34.708Z,8.50
2017-03-22T08:03:39.943Z,8.50
2017-03-22T08:04:44.749Z,8.50
2017-03-22T08:05:51.054Z,8.80
2017-03-22T08:06:55.893Z,8.70
2017-03-22T08:08:02.498Z,9.00
2017-03-22T08:09:08.085Z,9.00
2017-03-22T08:10:13.622Z,9.10
2017-03-22T08:11:19.246Z,8.90
2017-03-22T08:12:26.670Z,8.70
2017-03-22T08:13:31.734Z,8.50
2017-03-22T08:14:37.105Z,8.40
2017-03-22T08:15:42.757Z,8.50
2017-03-22T08:16:49.072Z,8.70
2017-03-22T08:17:54.670Z,8.60
2017-03-22T08:18:59.531Z,8.60
2017-03-22T08:20:05.093Z,8.60
2017-03-22T08:21:11.325Z,9.00
2017-03-22T08:22:16.909Z,9.00
2017-03-22T08:23:21.877Z,9.00
2017-03-22T08:24:27.450Z,9.10
2017-03-22T08:25:32.949Z,9.30
2017-03-22T08:26:39.381Z,9.20
2017-03-22T08:27:45.826Z,9.20
2017-03-22T08:28:51.733Z,9.30
2017-03-22T08:29:56.565Z,9.20
2017-03-22T08:31:02.882Z,9.40
2017-03-22T08:32:07.540Z,9.40
2017-03-22T08:33:13.897Z,9.50
2017-03-22T08:34:18.769Z,9.50
2017-03-22T08:35:25.069Z,9.50
2017-03-22T08:36:30.114Z,9.40
2017-03-22T08:37:36.341Z,9.30
2017-03-22T08:38:41.420Z,9.30
2017-03-22T08:39:47.144Z,9.10
2017-03-22T08:40:51.857Z,8.90
2017-03-22T08:41:58.184Z,9.20
2017-03-22T08:43:02.952Z,9.20
2017-03-22T08:44:08.563Z,9.40
2017-03-22T08:45:15.069Z,9.70
2017-03-22T08:46:19.876Z,9.80
2017-03-22T08:47:25.372Z,9.60
2017-03-22T08:48:32.498Z,9.60
2017-03-22T08:49:38.479Z,9.70
2017-03-22T08:50:43.380Z,9.70
2017-03-22T08:51:48.657Z,9.70
2017-03-22T08:52:55.045Z,9.90
2017-03-22T08:53:59.896Z,9.90
2017-03-22T08:55:05.384Z,9.80
2017-03-22T08:56:10.204Z,9.90
2017-03-22T08:57:16.616Z,10.10
2017-03-22T08:58:22.411Z,9.60
2017-03-22T08:59:28.068Z,9.60
2017-03-22T09:00:33.768Z,9.60
2017-03-22T09:01:38.601Z,9.60
2017-03-22T09:02:44.809Z,10.10
2017-03-22T09:03:49.797Z,10.00
2017-03-22T09:04:55.427Z,10.20
2017-03-22T09:06:01.805Z,10.20
2017-03-22T09:07:07.400Z,10.30
2017-03-22T09:08:12.968Z,10.30
2017-03-22T09:09:17.761Z,10.30
2017-03-22T09:10:23.429Z,10.10
2017-03-22T09:11:29.685Z,9.90
2017-03-22T09:12:34.686Z,9.80
2017-03-22T09:13:40.066Z,9.70
2017-03-22T09:14:44.765Z,9.90
2017-03-22T09:15:49.524Z,9.80
2017-03-22T09:16:55.105Z,9.80
2017-03-22T09:18:00.644Z,9.70
2017-03-22T09:19:06.549Z,9.90
2017-03-22T09:20:12.746Z,10.40
2017-03-22T09:21:18.441Z,10.50
2017-03-22T09:22:23.274Z,10.50
2017-03-22T09:23:28.938Z,10.40
2017-03-22T09:24:33.673Z,10.40
2017-03-22T09:25:40.033Z,10.60
2017-03-22T09:26:44.935Z,10.50
2017-03-22T09:27:50.586Z,10.70
2017-03-22T09:28:56.284Z,10.60
2017-03-22T09:30:02.607Z,10.70
2017-03-22T09:31:07.409Z,10.70
2017-03-22T09:32:13.021Z,10.90
2017-03-22T09:33:17.749Z,10.80
2017-03-22T09:34:23.280Z,10.80
2017-03-22T09:35:28.868Z,10.80
2017-03-22T09:36:33.616Z,10.80
2017-03-22T09:37:39.236Z,10.80
2017-03-22T09:38:45.694Z,10.80
2017-03-22T09:39:52.209Z,10.90
2017-03-22T09:40:57.716Z,11.00
2017-03-22T09:42:03.352Z,10.90
2017-03-22T09:43:08.211Z,10.90
2017-03-22T09:44:13.764Z,11.00
2017-03-22T09:45:19.144Z,11.10
2017-03-22T09:46:23.933Z,11.10
2017-03-22T09:47:30.133Z,11.20
2017-03-22T09:48:35.888Z,11.10
2017-03-22T09:49:40.821Z,11.10
2017-03-22T09:50:47.285Z,11.20
2017-03-22T09:51:52.725Z,11.00
2017-03-22T09:52:58.268Z,11.10
2017-03-22T09:54:03.133Z,11.00
2017-03-22T09:55:09.533Z,11.30
2017-03-22T09:56:14.278Z,11.30
2017-03-22T09:57:19.749Z,11.40
2017-03-22T09:58:24.401Z,11.50
2017-03-22T09:59:29.186Z,11.40
2017-03-22T10:00:34.601Z,11.40
2017-03-22T10:01:40.248Z,11.30
2017-03-22T10:02:45.730Z,11.20
2017-03-22T10:03:50.500Z,11.20
2017-03-22T10:04:56.861Z,11.10
2017-03-22T10:06:01.666Z,11.00
2017-03-22T10:07:08.137Z,11.10
2017-03-22T10:08:12.864Z,11.00
2017-03-22T10:09:18.464Z,11.10
2017-03-22T10:10:23.549Z,11.20
2017-03-22T10:11:28.725Z,11.20
2017-03-22T10:12:34.049Z,11.10
2017-03-22T10:13:38.833Z,11.20
2017-03-22T10:14:44.380Z,11.20
2017-03-22T10:15:50.746Z,11.30
2017-03-22T10:16:55.593Z,11.30
2017-03-22T10:18:01.168Z,11.40
2017-03-22T10:19:06.638Z,11.40
2017-03-22T10:20:12.237Z,11.40
2017-03-22T10:21:21.073Z,11.40
2017-03-22T10:22:26.453Z,11.40
2017-03-22T10:23:32.854Z,11.60
2017-03-22T10:24:38.451Z,11.60
2017-03-22T10:25:44.065Z,11.70
2017-03-22T10:26:49.020Z,11.70
2017-03-22T10:27:55.248Z,12.00
2017-03-22T10:29:01.014Z,11.90
2017-03-22T10:30:08.137Z,11.90
2017-03-22T10:31:13.525Z,11.90
2017-03-22T10:32:19.773Z,12.00
2017-03-22T10:33:25.409Z,12.00
2017-03-22T10:34:30.282Z,11.90
2017-03-22T10:35:36.653Z,12.00
2017-03-22T10:36:41.429Z,11.90
2017-03-22T10:37:47.034Z,12.00
2017-03-22T10:38:53.364Z,12.10
2017-03-22T10:39:58.153Z,12.10
2017-03-22T10:41:03.652Z,12.10
2017-03-22T10:42:09.295Z,12.00
2017-03-22T10:43:15.533Z,12.10
2017-03-22T10:44:20.179Z,12.10
2017-03-22T10:45:27.620Z,12.10
2017-03-22T10:46:32.372Z,12.10
2017-03-22T10:47:37.900Z,12.10
2017-03-22T10:48:43.322Z,12.10
2017-03-22T10:49:48.890Z,12.10
2017-03-22T10:50:53.785Z,12.00
2017-03-22T10:51:59.320Z,11.90
2017-03-22T10:53:04.062Z,11.90
2017-03-22T10:54:08.756Z,12.00
2017-03-22T10:55:14.345Z,12.10
2017-03-22T10:56:19.928Z,12.00
2017-03-22T10:57:25.573Z,11.90
2017-03-22T10:58:31.288Z,12.00
2017-03-22T10:59:37.948Z,12.10
2017-03-22T11:00:44.090Z,12.00
2017-03-22T11:01:48.929Z,12.00
2017-03-22T11:02:55.348Z,12.20
2017-03-22T11:04:00.169Z,12.20
2017-03-22T11:05:05.709Z,12.10
2017-03-22T11:06:11.281Z,12.30
2017-03-22T11:07:17.689Z,12.50
2017-03-22T11:08:23.233Z,12.40
2017-03-22T11:09:28.100Z,12.30
2017-03-22T11:10:33.690Z,12.40
2017-03-22T11:11:39.281Z,12.30
2017-03-22T11:12:46.713Z,12.30
2017-03-22T11:13:51.609Z,12.30
2017-03-22T11:14:57.088Z,12.40
2017-03-22T11:16:02.670Z,12.20
2017-03-22T11:17:07.452Z,12.20
2017-03-22T11:18:12.913Z,12.20
2017-03-22T11:19:19.258Z,12.20
2017-03-22T11:20:24.868Z,12.20
2017-03-22T11:21:29.829Z,12.10
2017-03-22T11:22:36.993Z,12.10
2017-03-22T11:23:42.032Z,12.10
2017-03-22T11:24:48.249Z,12.10
2017-03-22T11:25:53.148Z,12.10
2017-03-22T11:26:59.469Z,12.10
2017-03-22T11:28:04.597Z,12.10
2017-03-22T11:29:10.697Z,12.20
2017-03-22T11:30:15.709Z,12.10
2017-03-22T11:31:22.057Z,12.10
2017-03-22T11:32:27.044Z,12.00
2017-03-22T11:33:32.629Z,11.70
2017-03-22T11:34:38.154Z,11.70
2017-03-22T11:35:43.618Z,11.70
2017-03-22T11:36:49.297Z,11.70
2017-03-22T11:37:54.109Z,11.70
2017-03-22T11:38:59.742Z,11.60
2017-03-22T11:40:05.360Z,11.60
2017-03-22T11:41:12.409Z,11.60
2017-03-22T11:42:18.334Z,11.50
2017-03-22T11:43:23.246Z,11.40
2017-03-22T11:44:28.860Z,11.30
2017-03-22T11:45:35.265Z,11.30
2017-03-22T11:46:40.045Z,11.20
2017-03-22T11:47:46.317Z,11.20
2017-03-22T11:48:51.120Z,11.20
2017-03-22T11:49:56.665Z,11.20
2017-03-22T11:51:02.153Z,11.30
2017-03-22T11:52:06.905Z,11.30
2017-03-22T11:53:13.252Z,11.20
2017-03-22T11:54:18.639Z,11.10
2017-03-22T11:55:23.534Z,11.10
2017-03-22T11:56:29.945Z,11.10
2017-03-22T11:57:34.997Z,11.10
2017-03-22T11:58:40.567Z,11.10
2017-03-22T11:59:45.353Z,11.20
2017-03-22T12:00:50.154Z,11.20
2017-03-22T12:01:54.901Z,11.20
2017-03-22T12:03:01.321Z,11.10
2017-03-22T12:04:05.979Z,11.10
2017-03-22T12:05:10.648Z,11.00
2017-03-22T12:06:19.221Z,11.00
2017-03-22T12:07:24.744Z,11.00
2017-03-22T12:08:29.685Z,11.00
2017-03-22T12:09:35.293Z,11.00
2017-03-22T12:10:41.562Z,10.90
2017-03-22T12:11:46.962Z,11.00
2017-03-22T12:12:53.548Z,11.10
2017-03-22T12:13:59.134Z,11.10
2017-03-22T12:15:03.988Z,11.00
2017-03-22T12:16:11.124Z,11.00
2017-03-22T12:17:16.097Z,11.00
2017-03-22T12:18:21.776Z,11.00
2017-03-22T12:19:28.485Z,11.10
2017-03-22T12:20:34.920Z,11.10
2017-03-22T12:21:40.957Z,11.10
2017-03-22T12:22:46.378Z,11.20
2017-03-22T12:23:51.998Z,11.30
2017-03-22T12:24:56.741Z,11.20
2017-03-22T12:26:02.224Z,11.20
2017-03-22T12:27:08.777Z,11.10
2017-03-22T12:28:15.081Z,11.10
2017-03-22T12:29:19.964Z,11.10
2017-03-22T12:30:25.442Z,11.00
2017-03-22T12:31:30.971Z,11.00
2017-03-22T12:32:35.637Z,10.90
2017-03-22T12:33:40.329Z,11.00
2017-03-22T12:34:45.802Z,11.00
2017-03-22T12:35:51.234Z,11.00
2017-03-22T12:36:56.902Z,11.00
2017-03-22T12:38:01.740Z,11.00
2017-03-22T12:39:07.390Z,11.00
2017-03-22T12:40:12.221Z,10.90
2017-03-22T12:41:18.334Z,11.00
2017-03-22T12:42:23.894Z,10.90
2017-03-22T12:43:28.680Z,10.90
2017-03-22T12:44:34.297Z,11.00
2017-03-22T12:45:41.674Z,10.90
2017-03-22T12:46:46.481Z,10.90
2017-03-22T12:47:51.133Z,11.00
2017-03-22T12:48:57.541Z,10.90
2017-03-22T12:50:02.341Z,10.80
2017-03-22T12:51:07.861Z,10.90
2017-03-22T12:52:13.391Z,10.90
2017-03-22T12:53:19.003Z,10.70
2017-03-22T12:54:25.331Z,10.60
2017-03-22T12:55:30.260Z,10.60
2017-03-22T12:56:36.142Z,10.70
2017-03-22T12:57:41.465Z,10.60
2017-03-22T12:58:46.185Z,10.70
2017-03-22T12:59:51.780Z,10.80
2017-03-22T13:00:57.214Z,10.80
2017-03-22T13:02:02.806Z,10.70
2017-03-22T13:03:09.045Z,10.70
2017-03-22T13:04:13.764Z,10.70
2017-03-22T13:05:18.476Z,10.70
2017-03-22T13:06:24.008Z,10.70
2017-03-22T13:07:28.764Z,10.70
2017-03-22T13:08:35.080Z,10.70
2017-03-22T13:09:40.661Z,10.70
2017-03-22T13:10:46.209Z,10.70
2017-03-22T13:11:50.973Z,10.60
2017-03-22T13:12:57.389Z,10.70
2017-03-22T13:14:02.985Z,10.70
2017-03-22T13:15:08.589Z,10.60
2017-03-22T13:16:13.377Z,10.60
2017-03-22T13:17:19.041Z,10.70
2017-03-22T13:18:24.689Z,10.70
2017-03-22T13:19:30.141Z,10.70
2017-03-22T13:20:34.997Z,10.60
2017-03-22T13:21:41.357Z,10.70
2017-03-22T13:22:46.259Z,10.70
2017-03-22T13:23:51.825Z,10.60
2017-03-22T13:24:57.448Z,10.70
2017-03-22T13:26:03.874Z,10.70
2017-03-22T13:27:08.765Z,10.70
2017-03-22T13:28:14.193Z,10.80
2017-03-22T13:29:20.525Z,10.80
2017-03-22T13:30:25.288Z,10.80
2017-03-22T13:31:31.565Z,10.80
2017-03-22T13:32:36.606Z,10.80
2017-03-22T13:33:41.264Z,10.80
2017-03-22T13:34:45.964Z,10.70
2017-03-22T13:35:51.517Z,10.70
2017-03-22T13:36:57.061Z,10.70
2017-03-22T13:38:01.765Z,10.70
2017-03-22T13:39:08.113Z,10.80
2017-03-22T13:40:14.626Z,10.70
2017-03-22T13:41:20.263Z,10.70
2017-03-22T13:42:25.041Z,10.70
2017-03-22T13:43:29.756Z,10.90
2017-03-22T13:44:36.089Z,10.70
2017-03-22T13:45:46.083Z,10.70
2017-03-22T13:46:50.870Z,10.70
2017-03-22T13:47:56.520Z,10.60
2017-03-22T13:49:02.013Z,10.50
2017-03-22T13:50:07.607Z,10.50
2017-03-22T13:51:13.137Z,10.60
2017-03-22T13:52:17.766Z,10.60
2017-03-22T13:53:22.465Z,10.60
2017-03-22T13:54:27.265Z,10.70
2017-03-22T13:55:33.552Z,10.50
2017-03-22T13:56:39.186Z,10.50
2017-03-22T13:57:44.788Z,10.40
2017-03-22T13:58:50.396Z,10.50
2017-03-22T13:59:56.653Z,10.50
2017-03-22T14:01:01.485Z,10.50
2017-03-22T14:02:08.291Z,10.50
2017-03-22T14:03:13.741Z,10.50
2017-03-22T14:04:19.306Z,10.50
2017-03-22T14:05:25.589Z,10.40
2017-03-22T14:06:30.365Z,10.40
2017-03-22T14:07:36.073Z,10.50
2017-03-22T14:08:41.650Z,10.40
2017-03-22T14:09:46.353Z,10.40
2017-03-22T14:10:51.949Z,10.50
2017-03-22T14:11:57.584Z,10.50
2017-03-22T14:13:03.089Z,10.30
2017-03-22T14:14:08.654Z,10.30
2017-03-22T14:15:14.309Z,10.20
2017-03-22T14:16:19.080Z,10.10
2017-03-22T14:17:25.485Z,10.20
2017-03-22T14:18:30.466Z,10.10
2017-03-22T14:19:35.296Z,10.30
2017-03-22T14:20:41.682Z,10.20
2017-03-22T14:21:46.604Z,10.10